Herricks, New York
Current Conditions -  °F | °C
As of 5:51 AM on Wednesday 22 Oct 2014 (Local Time) from KJFK Reporting Station
Thunderstorm Thunderstorm  
Wind Chill: 57°   Ceiling: 1200
Heat Index: 57°   Visibility: 10mi
Dew Point: 53°   Wind: 15mph
Humidity: 87%   Direction: 10°N
Pressure: 29.89"   Gusts: NA
Location:  40.7459°N, 73.6798°W
Report Text: KJFK 220951Z 01013KT 10SM -TSRA BKN012 OVC040CB 14/12 A2989 RMK AO2 SLP120 OCNL LTGICCA S-NW TS S-NW MOV W P0003 T01390117 $
Loading
Personal Weather Stations






























Interactive Weather Map
Tropical Storm Tracking
New forecast layout! Learn more

10-Day Weather Forecast

Advertisements
Track Severe Weather on mobile